createdAt,value
2023-04-12T00:04:51.983Z,8.75
2023-04-12T00:09:53.082Z,8.75
2023-04-12T00:14:54.166Z,8.75
2023-04-12T00:19:56.256Z,8.65
2023-04-12T00:24:55.322Z,8.57
2023-04-12T00:29:56.420Z,8.57
2023-04-12T00:34:58.538Z,8.53
2023-04-12T00:39:58.424Z,8.54
2023-04-12T00:44:56.542Z,8.54
2023-04-12T00:49:58.619Z,8.58
2023-04-12T00:54:58.733Z,8.54
2023-04-12T00:59:58.828Z,8.63
2023-04-12T01:05:01.050Z,8.73
2023-04-12T01:09:58.153Z,8.79
2023-04-12T01:14:59.316Z,8.86
2023-04-12T01:20:01.401Z,8.79
2023-04-12T01:25:00.486Z,8.71
2023-04-12T01:30:01.669Z,8.75
2023-04-12T01:35:02.807Z,8.76
2023-04-12T01:40:04.859Z,8.79
2023-04-12T01:45:04.940Z,8.75
2023-04-12T01:50:05.007Z,8.65
2023-04-12T01:55:05.083Z,8.55
2023-04-12T02:00:06.170Z,8.51
2023-04-12T02:05:05.233Z,8.45
2023-04-12T02:10:08.374Z,8.40
2023-04-12T02:15:08.444Z,8.42
2023-04-12T02:20:07.542Z,8.39
2023-04-12T02:25:09.648Z,8.32
2023-04-12T02:30:09.729Z,8.32
2023-04-12T02:35:08.822Z,8.36
2023-04-12T02:40:10.902Z,8.40
2023-04-12T02:45:11.229Z,8.40
2023-04-12T02:50:10.306Z,8.39
2023-04-12T02:55:12.382Z,8.33
2023-04-12T03:00:12.571Z,8.33
2023-04-12T03:05:11.584Z,8.32
2023-04-12T03:10:12.862Z,8.32
2023-04-12T03:15:13.940Z,8.36
2023-04-12T03:20:16.033Z,8.40
2023-04-12T03:25:15.116Z,8.40
2023-04-12T03:30:16.176Z,8.36
2023-04-12T03:35:18.319Z,8.29
2023-04-12T03:40:17.360Z,8.15
2023-04-12T03:45:18.421Z,8.21
2023-04-12T03:50:19.501Z,8.25
2023-04-12T03:55:20.591Z,8.25
2023-04-12T04:00:22.149Z,8.20
2023-04-12T04:05:23.305Z,8.33
2023-04-12T04:10:22.700Z,8.37
2023-04-12T04:15:23.764Z,8.35
2023-04-12T04:20:26.034Z,8.33
2023-04-12T04:25:25.879Z,8.28
2023-04-12T04:30:24.957Z,8.35
2023-04-12T04:35:26.083Z,8.42
2023-04-12T04:40:28.160Z,8.47
2023-04-12T04:45:27.280Z,8.50
2023-04-12T04:50:28.363Z,8.51
2023-04-12T04:55:30.461Z,8.55
2023-04-12T05:00:29.548Z,8.58
2023-04-12T05:05:30.626Z,8.57
2023-04-12T05:10:31.682Z,8.55
2023-04-12T05:15:32.745Z,8.57
2023-04-12T05:20:34.851Z,8.57
2023-04-12T05:25:34.961Z,8.57
2023-04-12T05:30:55.076Z,8.58
2023-04-12T05:35:34.110Z,8.66
2023-04-12T05:40:35.167Z,8.69
2023-04-12T05:45:38.235Z,8.73
2023-04-12T05:50:37.325Z,8.81
2023-04-12T05:55:39.425Z,8.88
2023-04-12T06:00:38.533Z,8.93
2023-04-12T06:05:40.661Z,9.02
2023-04-12T06:10:39.747Z,8.94
2023-04-12T06:15:41.871Z,8.86
2023-04-12T06:20:40.901Z,8.75
2023-04-12T06:25:41.993Z,8.66
2023-04-12T06:30:45.073Z,8.54
2023-04-12T06:35:44.402Z,8.66
2023-04-12T06:40:45.423Z,8.76
2023-04-12T06:45:46.492Z,8.97
2023-04-12T06:50:47.587Z,8.88
2023-04-12T06:55:49.703Z,9.05
2023-04-12T07:00:48.756Z,9.10
2023-04-12T07:05:49.825Z,9.23
2023-04-12T07:10:51.939Z,8.91
2023-04-12T07:15:50.991Z,8.84
2023-04-12T07:20:52.097Z,9.13
2023-04-12T07:25:53.184Z,9.18
2023-04-12T07:30:54.265Z,9.23
2023-04-12T07:35:55.378Z,9.75
2023-04-12T07:40:56.429Z,10.40
2023-04-12T07:45:57.596Z,10.58
2023-04-12T07:50:58.664Z,10.98
2023-04-12T07:56:00.791Z,11.41
2023-04-12T08:01:01.447Z,11.52
2023-04-12T08:06:01.700Z,11.01
2023-04-12T08:11:01.870Z,11.43
2023-04-12T08:16:02.041Z,12.06
2023-04-12T08:21:02.104Z,11.96
2023-04-12T08:26:01.164Z,12.64
2023-04-12T08:31:02.277Z,13.06
2023-04-12T08:36:03.445Z,13.12
2023-04-12T08:41:06.917Z,13.43
2023-04-12T08:46:04.142Z,13.74
2023-04-12T08:51:05.231Z,14.46
2023-04-12T08:56:07.365Z,14.44
2023-04-12T09:01:06.393Z,14.57
2023-04-12T09:06:09.780Z,14.67
2023-04-12T09:11:08.860Z,14.56
2023-04-12T09:16:10.179Z,14.39
2023-04-12T09:21:12.254Z,14.39
2023-04-12T09:26:11.354Z,14.62
2023-04-12T09:31:12.491Z,14.42
2023-04-12T09:36:13.738Z,14.86
2023-04-12T09:41:17.073Z,15.93
2023-04-12T09:46:16.041Z,16.48
2023-04-12T09:51:17.128Z,16.53
2023-04-12T09:56:18.263Z,16.20
2023-04-12T10:01:19.370Z,15.74
2023-04-12T10:06:20.441Z,16.01
2023-04-12T10:11:21.551Z,16.68
2023-04-12T10:16:23.735Z,17.47
2023-04-12T10:21:22.768Z,18.13
2023-04-12T10:26:23.876Z,18.24
2023-04-12T10:31:25.957Z,18.28
2023-04-12T10:36:24.999Z,18.80
2023-04-12T10:41:26.188Z,18.59
2023-04-12T10:46:27.258Z,18.40
2023-04-12T10:51:29.347Z,17.79
2023-04-12T10:56:30.171Z,18.76
2023-04-12T11:01:31.097Z,18.37
2023-04-12T11:06:30.190Z,18.27
2023-04-12T11:11:31.295Z,19.10
2023-04-12T11:16:32.453Z,19.42
2023-04-12T11:21:33.563Z,18.64
2023-04-12T11:26:35.704Z,17.23
2023-04-12T11:31:34.885Z,17.20
2023-04-12T11:36:36.249Z,17.59
2023-04-12T11:41:38.320Z,17.47
2023-04-12T11:46:37.332Z,17.48
2023-04-12T11:51:39.403Z,17.63
2023-04-12T11:56:42.361Z,17.13
2023-04-12T12:01:43.326Z,16.95
2023-04-12T12:06:40.621Z,17.07
2023-04-12T12:11:41.226Z,17.06
2023-04-12T12:16:41.438Z,16.81
2023-04-12T12:21:40.458Z,16.70
2023-04-12T12:26:41.543Z,16.59
2023-04-12T12:31:43.284Z,16.52
2023-04-12T12:36:42.426Z,16.45
2023-04-12T12:41:43.515Z,16.16
2023-04-12T12:46:53.211Z,15.84
2023-04-12T12:51:44.601Z,15.28
2023-04-12T12:56:45.646Z,14.99
2023-04-12T13:01:46.765Z,15.38
2023-04-12T13:06:47.831Z,15.60
2023-04-12T13:11:49.019Z,15.11
2023-04-12T13:16:50.094Z,14.71
2023-04-12T13:21:52.978Z,14.74
2023-04-12T13:26:52.297Z,14.64
2023-04-12T13:31:53.430Z,14.72
2023-04-12T13:36:54.621Z,14.46
2023-04-12T13:41:54.762Z,14.27
2023-04-12T13:46:56.843Z,14.25
2023-04-12T13:51:57.986Z,14.75
2023-04-12T13:56:57.178Z,14.78
2023-04-12T14:01:58.416Z,14.54
2023-04-12T14:07:00.575Z,14.74
2023-04-12T14:11:59.678Z,15.49
2023-04-12T14:17:02.770Z,15.61
2023-04-12T14:22:01.815Z,16.12
2023-04-12T14:27:04.931Z,15.36
2023-04-12T14:32:04.025Z,15.75
2023-04-12T14:37:05.177Z,16.04
2023-04-12T14:42:06.234Z,16.30
2023-04-12T14:47:08.651Z,16.35
2023-04-12T14:52:09.693Z,16.44
2023-04-12T14:57:08.748Z,16.30
2023-04-12T15:02:09.989Z,16.26
2023-04-12T15:07:11.251Z,16.38
2023-04-12T15:12:12.412Z,16.25
2023-04-12T15:17:14.454Z,16.56
2023-04-12T15:22:13.573Z,16.71
2023-04-12T15:27:15.656Z,16.80
2023-04-12T15:32:14.879Z,16.75
2023-04-12T15:37:17.024Z,16.77
2023-04-12T15:42:16.160Z,16.38
2023-04-12T15:47:18.453Z,16.38
2023-04-12T15:52:17.605Z,16.18
2023-04-12T15:57:18.787Z,16.09
2023-04-12T16:02:20.111Z,15.84
2023-04-12T16:07:21.244Z,15.67
2023-04-12T16:12:22.413Z,15.51
2023-04-12T16:17:23.588Z,15.17
2023-04-12T16:22:24.712Z,15.01
2023-04-12T16:27:25.891Z,14.57
2023-04-12T16:32:27.223Z,14.31
2023-04-12T16:37:28.352Z,14.13
2023-04-12T16:42:28.723Z,13.98
2023-04-12T16:47:31.243Z,13.99
2023-04-12T16:52:30.371Z,13.76
2023-04-12T16:57:31.575Z,13.87
2023-04-12T17:02:33.094Z,13.56
2023-04-12T17:07:32.433Z,13.18
2023-04-12T17:12:34.541Z,13.17
2023-04-12T17:17:33.901Z,13.03
2023-04-12T17:22:36.312Z,13.09
2023-04-12T17:27:35.803Z,12.74
2023-04-12T17:32:35.347Z,12.48
2023-04-12T17:37:34.876Z,12.41
2023-04-12T17:42:35.372Z,12.20
2023-04-12T17:47:35.973Z,12.13
2023-04-12T17:52:35.364Z,12.12
2023-04-12T17:57:36.571Z,12.20
2023-04-12T18:02:38.848Z,11.49
2023-04-12T18:07:41.048Z,11.44
2023-04-12T18:12:38.889Z,11.38
2023-04-12T18:17:41.344Z,11.07
2023-04-12T18:23:02.491Z,11.07
2023-04-12T18:27:42.822Z,10.94
2023-04-12T18:32:43.331Z,10.98
2023-04-12T18:37:42.790Z,11.07
2023-04-12T18:42:42.006Z,11.10
2023-04-12T18:47:44.416Z,10.91
2023-04-12T18:52:43.987Z,10.68
2023-04-12T18:57:43.430Z,10.53
2023-04-12T19:02:45.148Z,10.37
2023-04-12T19:07:44.736Z,10.22
2023-04-12T19:12:44.273Z,10.15
2023-04-12T19:17:43.854Z,10.10
2023-04-12T19:22:44.189Z,10.19
2023-04-12T19:27:43.825Z,9.93
2023-04-12T19:32:43.196Z,9.81
2023-04-12T19:37:44.604Z,9.75
2023-04-12T19:42:43.909Z,9.81
2023-04-12T19:47:46.448Z,9.86
2023-04-12T19:52:47.845Z,9.86
2023-04-12T19:57:49.067Z,9.85
2023-04-12T20:02:48.589Z,9.89
2023-04-12T20:07:48.083Z,9.93
2023-04-12T20:12:47.600Z,9.71
2023-04-12T20:17:47.071Z,9.79
2023-04-12T20:22:46.581Z,9.73
2023-04-12T20:27:48.306Z,9.67
2023-04-12T20:32:46.861Z,9.53
2023-04-12T20:37:47.219Z,9.61
2023-04-12T20:42:47.724Z,9.52
2023-04-12T20:47:46.896Z,9.56
2023-04-12T20:52:48.814Z,9.43
2023-04-12T20:57:47.880Z,9.43
2023-04-12T21:02:49.209Z,9.43
2023-04-12T21:07:50.349Z,9.40
2023-04-12T21:12:51.417Z,9.15
2023-04-12T21:17:52.572Z,9.05
2023-04-12T21:22:53.789Z,9.01
2023-04-12T21:27:55.830Z,8.99
2023-04-12T21:32:54.974Z,8.96
2023-04-12T21:37:56.160Z,8.99
2023-04-12T21:42:57.232Z,9.05
2023-04-12T21:47:59.384Z,9.04
2023-04-12T21:52:59.448Z,8.87
2023-04-12T21:57:58.687Z,8.97
2023-04-12T22:03:00.204Z,8.88
2023-04-12T22:07:59.635Z,8.96
2023-04-12T22:13:00.630Z,8.91
2023-04-12T22:18:01.916Z,8.87
2023-04-12T22:23:03.945Z,8.71
2023-04-12T22:28:02.990Z,8.60
2023-04-12T22:33:04.118Z,8.10
2023-04-12T22:38:05.173Z,7.38
2023-04-12T22:43:06.260Z,6.98
2023-04-12T22:48:10.631Z,6.71
2023-04-12T22:53:08.739Z,6.72
2023-04-12T22:58:09.832Z,6.72
2023-04-12T23:03:09.990Z,6.72
2023-04-12T23:08:09.104Z,6.66
2023-04-12T23:13:10.178Z,6.65
2023-04-12T23:18:12.308Z,6.65
2023-04-12T23:23:16.244Z,6.68
2023-04-12T23:28:11.318Z,6.66
2023-04-12T23:33:12.679Z,6.76
2023-04-12T23:38:13.814Z,6.77
2023-04-12T23:43:14.884Z,6.72
2023-04-12T23:48:16.983Z,6.71
2023-04-12T23:53:16.062Z,6.95
2023-04-12T23:58:19.116Z,6.98
